Time;durP1;ratioP1;P1;durP2;ratioP2;P2;SDS_P1;SDS_P2;PMS_P1;PMS_P2;Temp;Humidity;BMP_temperature;BMP_pressure;BME280_temperature;BME280_humidity;BME280_pressure;Samples;Min_cycle;Max_cycle;Signal;HPM_P1;HPM_P2
2022/04/20 00:00:59;;;;;;;3.43;3.13;;;;;;;4.25;100.00;96022.97;5010100;28;105161;-65
2022/04/20 00:03:26;;;;;;;3.33;3.10;;;;;;;4.26;100.00;96012.19;5010331;28;101882;-65
2022/04/20 00:05:55;;;;;;;5.30;3.30;;;;;;;4.18;100.00;96017.75;5013500;28;105107;-65
2022/04/20 00:08:22;;;;;;;3.60;3.40;;;;;;;4.24;100.00;96018.69;5010722;28;101894;-65
2022/04/20 00:10:49;;;;;;;3.77;3.30;;;;;;;4.04;100.00;96016.28;5010514;28;105131;-65
2022/04/20 00:13:17;;;;;;;3.87;3.57;;;;;;;3.98;100.00;96016.38;5043374;27;105630;-65
2022/04/20 00:15:44;;;;;;;3.57;3.27;;;;;;;3.99;100.00;96013.50;5010579;28;101908;-65
2022/04/20 00:18:11;;;;;;;5.03;3.83;;;;;;;4.01;100.00;96016.75;5042903;27;104796;-65
2022/04/20 00:20:38;;;;;;;4.13;3.80;;;;;;;4.00;100.00;96014.31;5011156;28;103180;-65
2022/04/20 00:23:06;;;;;;;4.20;3.80;;;;;;;3.98;100.00;96014.53;5010655;28;101742;-65
2022/04/20 00:25:33;;;;;;;4.07;3.77;;;;;;;3.96;100.00;96015.78;5010036;28;105100;-64
2022/04/20 00:28:01;;;;;;;3.83;3.53;;;;;;;3.97;100.00;96004.22;5014454;28;103139;-65
2022/04/20 00:30:28;;;;;;;3.80;3.50;;;;;;;3.98;100.00;96003.22;5010440;28;104985;-65
2022/04/20 00:32:55;;;;;;;5.53;4.40;;;;;;;3.98;100.00;96008.47;5043578;27;103967;-65
2022/04/20 00:35:23;;;;;;;3.73;3.43;;;;;;;3.80;100.00;95995.28;5010129;28;102012;-65
2022/04/20 00:37:50;;;;;;;3.97;3.63;;;;;;;3.81;100.00;95999.53;5010331;28;104815;-64
2022/04/20 00:40:19;;;;;;;4.20;3.80;;;;;;;3.58;100.00;96002.81;5009311;28;105524;-65
2022/04/20 00:42:46;;;;;;;4.33;3.93;;;;;;;3.59;100.00;96006.22;5009897;28;101901;-65
2022/04/20 00:45:14;;;;;;;4.00;3.67;;;;;;;3.60;100.00;96008.63;5011307;28;102899;-65
2022/04/20 00:47:44;;;;;;;4.60;4.30;;;;;;;3.52;100.00;96005.47;4993043;28;105861;-65
2022/04/20 00:50:14;;;;;;;4.20;3.90;;;;;;;3.44;100.00;95997.88;5013276;28;101857;-65
2022/04/20 00:52:41;;;;;;;4.23;3.80;;;;;;;3.28;100.00;95998.41;5009270;28;104970;-64
2022/04/20 00:55:11;;;;;;;4.20;3.80;;;;;;;3.36;100.00;95998.94;5009917;28;101896;-65
2022/04/20 00:57:41;;;;;;;4.80;4.40;;;;;;;3.35;100.00;96001.78;5009354;28;105299;-65
2022/04/20 01:00:11;;;;;;;5.10;4.60;;;;;;;3.36;100.00;96003.38;5009084;28;105474;-65
2022/04/20 01:02:45;;;;;;;4.53;4.20;;;;;;;3.32;100.00;95994.31;5009822;28;101802;-65
2022/04/20 01:05:14;;;;;;;4.90;4.50;;;;;;;3.30;100.00;95996.38;5043670;27;104863;-65
2022/04/20 01:07:48;;;;;;;4.83;4.40;;;;;;;3.34;100.00;95995.72;5008967;28;105791;-65
2022/04/20 01:10:33;;;;;;;4.80;4.40;;;;;;;3.06;100.00;95990.09;5009913;28;102113;-65
2022/04/20 01:13:24;;;;;;;4.50;4.10;;;;;;;2.93;100.00;95995.44;5012419;28;101908;-65
2022/04/20 01:16:10;;;;;;;4.70;4.30;;;;;;;2.98;100.00;95992.16;5008186;28;101668;-65
2022/04/20 01:18:55;;;;;;;5.43;4.93;;;;;;;2.91;100.00;95994.03;5008342;28;102062;-65
2022/04/20 01:21:42;;;;;;;5.00;4.50;;;;;;;2.69;100.00;95993.56;5042845;27;104469;-65
2022/04/20 01:24:28;;;;;;;4.33;4.03;;;;;;;2.71;100.00;95994.16;5008154;28;101967;-65
2022/04/20 01:27:15;;;;;;;5.07;4.67;;;;;;;2.76;100.00;95990.91;5010480;28;102250;-65
2022/04/20 01:30:02;;;;;;;5.43;5.00;;;;;;;2.70;100.00;95986.50;5007295;28;102240;-65
2022/04/20 01:32:56;;;;;;;5.20;4.80;;;;;;;2.59;100.00;95974.03;5009847;27;101929;-65
2022/04/20 01:35:41;;;;;;;5.73;5.13;;;;;;;2.68;100.00;95986.69;5009363;28;105545;-65
2022/04/20 01:38:10;;;;;;;5.23;4.80;;;;;;;2.65;100.00;95978.44;5011946;28;105507;-65
2022/04/20 01:40:39;;;;;;;5.80;5.30;;;;;;;2.56;100.00;95984.97;5043015;27;104796;-65
2022/04/20 01:43:06;;;;;;;5.53;5.03;;;;;;;2.51;100.00;95979.56;5008460;28;105513;-65
2022/04/20 01:45:34;;;;;;;5.70;5.20;;;;;;;2.56;100.00;95977.09;5009292;28;101958;-64
2022/04/20 01:48:20;;;;;;;5.30;4.80;;;;;;;2.50;100.00;95973.50;5011012;28;102068;-65
2022/04/20 01:54:00;;;;;;;6.13;5.53;;;;;;;2.37;100.00;95970.13;5008691;28;101916;-65
2022/04/20 01:56:43;;;;;;;6.43;5.50;;;;;;;2.27;100.00;95967.16;5008644;28;104887;-65
2022/04/20 01:59:30;;;;;;;5.67;5.17;;;;;;;1.82;100.00;95968.16;4987716;28;102520;-65
2022/04/20 02:02:41;;;;;;;5.93;5.37;;;;;;;1.73;100.00;95971.97;5011321;28;101930;-65
2022/04/20 02:05:34;;;;;;;5.90;5.40;;;;;;;1.90;100.00;95970.53;5000017;28;102692;-65
2022/04/20 02:08:17;;;;;;;6.53;6.00;;;;;;;1.94;100.00;95971.72;5008697;28;102273;-65
2022/04/20 02:11:17;;;;;;;6.27;5.67;;;;;;;1.89;100.00;95974.97;4997670;28;102778;-65
2022/04/20 02:13:45;;;;;;;7.33;6.63;;;;;;;2.03;100.00;95975.75;5007912;28;105033;-65
2022/04/20 02:16:15;;;;;;;7.50;6.90;;;;;;;2.04;100.00;95980.78;5008668;28;102486;-65
2022/04/20 02:19:00;;;;;;;7.40;6.70;;;;;;;1.92;100.00;95979.00;5010638;28;102081;-65
2022/04/20 02:21:43;;;;;;;8.13;7.43;;;;;;;2.03;100.00;95983.59;5007897;28;104821;-65
2022/04/20 02:24:11;;;;;;;7.80;7.07;;;;;;;2.09;100.00;95986.19;5011921;28;102123;-65
2022/04/20 02:26:39;;;;;;;7.73;7.03;;;;;;;2.20;100.00;95982.13;5008164;28;105486;-65
2022/04/20 02:29:06;;;;;;;7.53;6.93;;;;;;;2.16;100.00;95976.50;5008529;28;101953;-65
2022/04/20 02:31:34;;;;;;;7.90;7.20;;;;;;;2.17;100.00;95972.84;5008553;28;105446;-65
2022/04/20 02:34:02;;;;;;;7.87;7.17;;;;;;;2.15;100.00;95976.69;5007900;28;105140;-65
2022/04/20 02:36:31;;;;;;;8.47;7.67;;;;;;;2.10;100.00;95974.69;5008411;28;102006;-65
2022/04/20 02:39:03;;;;;;;8.10;7.40;;;;;;;1.90;100.00;95967.91;5007969;28;104003;-65
2022/04/20 02:41:30;;;;;;;7.73;7.10;;;;;;;1.90;100.00;95970.53;5009442;28;103830;-65
2022/04/20 02:43:59;;;;;;;8.20;7.40;;;;;;;1.94;100.00;95971.72;5011786;28;101816;-65
2022/04/20 02:46:27;;;;;;;8.43;7.73;;;;;;;1.99;100.00;95980.59;5014741;28;104793;-65
2022/04/20 02:48:54;;;;;;;8.80;7.90;;;;;;;2.03;100.00;95978.34;5012049;28;101928;-65
2022/04/20 02:51:21;;;;;;;9.03;8.13;;;;;;;2.05;100.00;95974.53;5011869;28;105258;-65
2022/04/20 02:53:49;;;;;;;8.37;7.57;;;;;;;2.03;100.00;95967.88;5011652;28;105131;-65
2022/04/20 02:56:16;;;;;;;8.67;7.90;;;;;;;1.93;100.00;95970.13;5011558;28;101900;-65
2022/04/20 02:58:46;;;;;;;8.17;7.40;;;;;;;1.82;100.00;95968.97;5012212;28;105141;-65
2022/04/20 03:01:16;;;;;;;7.70;7.00;;;;;;;1.60;100.00;95969.41;4994539;28;106783;-65
2022/04/20 03:03:45;;;;;;;7.50;6.83;;;;;;;1.59;100.00;95967.81;5045481;27;101919;-65
2022/04/20 03:06:23;;;;;;;8.90;8.10;;;;;;;1.72;100.00;95962.53;5045455;27;104607;-65
2022/04/20 03:08:50;;;;;;;9.70;8.50;;;;;;;1.70;100.00;95959.31;5014826;28;103911;-65
2022/04/20 03:11:21;;;;;;;8.60;7.80;;;;;;;1.70;100.00;95964.56;5012022;28;104903;-65
2022/04/20 03:13:49;;;;;;;8.07;7.27;;;;;;;1.71;100.00;95966.16;5010995;28;105727;-65
2022/04/20 03:16:20;;;;;;;9.13;8.23;;;;;;;1.75;100.00;95967.38;5012090;28;101935;-65
2022/04/20 03:18:49;;;;;;;9.80;8.80;;;;;;;1.73;100.00;95964.13;5012141;28;104769;-65
2022/04/20 03:21:21;;;;;;;10.63;9.20;;;;;;;1.70;100.00;95964.56;5045379;27;105595;-65
2022/04/20 03:23:52;;;;;;;10.47;9.47;;;;;;;1.63;100.00;95966.38;5011663;28;101857;-65
2022/04/20 03:26:28;;;;;;;10.47;9.47;;;;;;;1.59;100.00;95967.81;5011854;28;103797;-65
2022/04/20 03:29:03;;;;;;;10.37;9.37;;;;;;;1.50;100.00;95977.69;5011001;28;104935;-65
2022/04/20 03:31:34;;;;;;;10.57;9.47;;;;;;;1.57;100.00;95970.63;5014595;28;101889;-65
2022/04/20 03:34:01;;;;;;;11.43;10.20;;;;;;;1.35;100.00;95966.63;5010703;28;105102;-65
2022/04/20 03:36:28;;;;;;;10.30;9.33;;;;;;;1.40;100.00;95971.25;5010700;28;102007;-65
2022/04/20 03:38:56;;;;;;;10.13;9.13;;;;;;;1.13;100.00;95974.91;5045210;27;105102;-65
2022/04/20 03:41:23;;;;;;;12.17;10.97;;;;;;;1.28;100.00;95971.09;5010595;28;105950;-65
2022/04/20 03:43:50;;;;;;;12.47;11.17;;;;;;;1.18;100.00;95975.91;5010002;28;101848;-65
2022/04/20 03:46:17;;;;;;;11.37;10.27;;;;;;;1.30;100.00;95970.84;5009731;28;104805;-65
2022/04/20 03:48:45;;;;;;;18.53;14.87;;;;;;;1.33;100.00;95975.69;5009530;28;104932;-65
2022/04/20 03:51:13;;;;;;;21.60;17.07;;;;;;;1.39;100.00;95982.75;5010218;28;101944;-65
2022/04/20 03:53:40;;;;;;;20.87;16.47;;;;;;;1.48;100.00;95986.78;5012680;28;104879;-65
2022/04/20 03:56:07;;;;;;;19.93;16.13;;;;;;;1.50;100.00;95980.31;5009220;28;101956;-65
2022/04/20 03:58:36;;;;;;;18.33;14.97;;;;;;;1.68;100.00;95980.47;5010915;28;105117;-65
2022/04/20 04:01:05;;;;;;;15.43;13.83;;;;;;;1.74;100.00;95976.22;5010292;28;103982;-65
2022/04/20 04:03:32;;;;;;;16.47;14.73;;;;;;;1.77;100.00;95975.81;5026628;28;102002;-65
2022/04/20 04:06:09;;;;;;;16.50;14.83;;;;;;;1.75;100.00;95983.09;5010716;28;104107;-65
2022/04/20 04:08:38;;;;;;;16.43;14.73;;;;;;;1.92;100.00;95985.03;5010575;28;105203;-65
2022/04/20 04:11:05;;;;;;;17.00;15.20;;;;;;;1.76;100.00;95979.44;5011318;28;101930;-65
2022/04/20 04:13:33;;;;;;;17.30;15.50;;;;;;;1.80;100.00;95976.19;5009987;28;105101;-65
2022/04/20 04:16:01;;;;;;;17.30;15.50;;;;;;;1.88;100.00;95980.41;5012302;28;101981;-65
2022/04/20 04:18:30;;;;;;;17.50;15.43;;;;;;;1.87;100.00;95982.22;5009658;28;105011;-65
2022/04/20 04:21:00;;;;;;;18.17;15.73;;;;;;;1.96;100.00;95985.41;5008892;28;103742;-65
2022/04/20 04:23:29;;;;;;;18.13;16.23;;;;;;;2.03;100.00;95983.59;5009743;28;102158;-65
2022/04/20 04:26:15;;;;;;;16.53;14.70;;;;;;;2.00;100.00;95986.63;5008135;28;102042;-65
2022/04/20 04:28:45;;;;;;;17.67;15.40;;;;;;;1.92;100.00;95998.16;5008563;28;105427;-65
2022/04/20 04:31:15;;;;;;;17.20;15.33;;;;;;;1.91;100.00;95990.50;5022385;27;103274;-65
2022/04/20 04:33:43;;;;;;;17.37;15.57;;;;;;;1.97;100.00;95997.53;5026108;28;103872;-65
2022/04/20 04:36:12;;;;;;;16.30;14.60;;;;;;;2.21;100.00;95994.22;5011941;28;106226;-65
2022/04/20 04:38:46;;;;;;;19.47;15.33;;;;;;;2.30;100.00;95990.34;5009251;28;105308;-65
2022/04/20 04:41:17;;;;;;;17.07;15.27;;;;;;;2.45;100.00;96001.34;5042337;27;105449;-65
2022/04/20 04:43:45;;;;;;;16.87;15.07;;;;;;;2.47;100.00;95996.72;5042516;27;101862;-65
2022/04/20 04:49:20;;;;;;;16.83;15.10;;;;;;;2.67;100.00;95994.81;5008928;27;102943;-65
2022/04/20 04:51:48;;;;;;;17.37;15.03;;;;;;;2.56;100.00;95993.66;5042574;27;101906;-65
2022/04/20 04:54:20;;;;;;;16.43;14.83;;;;;;;2.66;100.00;95993.19;5042701;27;105419;-65
2022/04/20 04:56:47;;;;;;;15.37;13.83;;;;;;;2.78;100.00;95997.56;5007952;28;105068;-65
2022/04/20 04:59:14;;;;;;;15.03;13.53;;;;;;;2.82;100.00;95998.75;5046025;27;101883;-65
2022/04/20 05:01:43;;;;;;;13.93;12.53;;;;;;;2.93;100.00;96002.50;5041557;27;104690;-65
2022/04/20 05:04:16;;;;;;;14.10;12.70;;;;;;;2.85;100.00;96006.19;5042025;27;102090;-65
2022/04/20 05:06:44;;;;;;;13.23;11.83;;;;;;;2.98;100.00;96007.91;5008738;28;104973;-65
2022/04/20 05:09:21;;;;;;;12.97;11.67;;;;;;;2.96;100.00;96004.72;5006471;28;102616;-65
2022/04/20 05:11:49;;;;;;;13.47;12.07;;;;;;;3.08;100.00;95998.56;5042300;27;101926;-65
2022/04/20 05:14:19;;;;;;;13.73;12.27;;;;;;;3.23;100.00;96008.75;5008334;28;105092;-65
2022/04/20 05:16:49;;;;;;;13.90;12.10;;;;;;;3.16;100.00;96000.13;5007915;28;105380;-65
2022/04/20 05:19:17;;;;;;;12.03;10.83;;;;;;;3.20;100.00;96011.81;5042334;27;101868;-65
2022/04/20 05:21:44;;;;;;;12.53;11.33;;;;;;;3.24;100.00;96002.47;5028227;28;105009;-65
2022/04/20 05:24:14;;;;;;;12.93;11.57;;;;;;;3.23;100.00;96004.28;5042219;27;101925;-65
2022/04/20 05:26:42;;;;;;;12.37;11.07;;;;;;;3.21;100.00;96014.22;5008151;28;104068;-65
2022/04/20 05:29:09;;;;;;;12.43;11.23;;;;;;;3.20;100.00;96012.63;5007991;28;105425;-65
2022/04/20 05:31:59;;;;;;;14.13;12.03;;;;;;;3.33;100.00;96011.72;5008343;28;101891;-64
2022/04/20 05:34:30;;;;;;;12.37;11.07;;;;;;;3.47;100.00;96014.03;5008138;28;104947;-64
2022/04/20 05:42:31;;;;;;;12.57;11.27;;;;;;;3.78;100.00;96006.03;5041846;27;105150;-65
2022/04/20 05:44:59;;;;;;;12.17;10.97;;;;;;;3.68;100.00;96010.19;5010906;28;104925;-65
2022/04/20 05:47:26;;;;;;;12.97;11.23;;;;;;;3.72;100.00;96008.75;5024913;28;105711;-65
2022/04/20 05:49:54;;;;;;;12.50;10.63;;;;;;;3.86;100.00;96007.56;5007139;28;104909;-65
2022/04/20 05:52:21;;;;;;;12.87;11.57;;;;;;;4.00;100.00;96009.88;5007981;28;102663;-65
2022/04/20 05:54:50;;;;;;;12.07;10.80;;;;;;;3.70;100.00;96019.47;5007984;28;105149;-64
2022/04/20 05:57:17;;;;;;;12.33;11.10;;;;;;;3.58;100.00;96005.44;5006599;28;105763;-65
2022/04/20 05:59:50;;;;;;;12.40;11.20;;;;;;;3.76;100.00;96008.09;5007851;28;102175;-64
2022/04/20 06:02:18;;;;;;;12.03;10.83;;;;;;;3.73;100.00;96012.97;5024287;28;104785;-64
2022/04/20 06:04:45;;;;;;;12.53;11.23;;;;;;;3.72;100.00;96016.63;5040745;27;105003;-64
2022/04/20 06:07:24;;;;;;;12.53;11.23;;;;;;;3.87;100.00;96015.25;5009479;28;101978;-64
2022/04/20 06:10:15;;;;;;;12.20;11.00;;;;;;;3.97;100.00;96010.28;5023962;28;104276;-65
2022/04/20 06:12:53;;;;;;;11.27;10.10;;;;;;;3.84;100.00;96007.00;5041127;27;102121;-64
2022/04/20 06:15:34;;;;;;;11.77;10.57;;;;;;;3.85;100.00;96005.97;5006365;28;105035;-65
2022/04/20 06:18:23;;;;;;;12.33;11.03;;;;;;;3.83;100.00;96008.81;5007940;27;104005;-64
2022/04/20 06:21:14;;;;;;;11.43;10.33;;;;;;;3.80;100.00;95997.94;5007956;27;102044;-65
2022/04/20 06:24:00;;;;;;;12.23;10.37;;;;;;;3.68;100.00;96000.50;5009026;28;102165;-64
2022/04/20 06:26:44;;;;;;;12.90;10.80;;;;;;;3.83;100.00;95997.50;5023682;28;105691;-65
2022/04/20 06:29:38;;;;;;;11.50;10.40;;;;;;;4.00;100.00;96003.78;5010881;28;101943;-64
2022/04/20 06:32:19;;;;;;;13.13;11.13;;;;;;;3.90;100.00;95999.06;5007090;28;103715;-65
2022/04/20 06:35:08;;;;;;;11.80;10.30;;;;;;;3.99;100.00;96005.59;5041014;27;101791;-64
2022/04/20 06:37:59;;;;;;;11.17;10.07;;;;;;;4.07;100.00;95996.63;5007576;27;102733;-64
2022/04/20 06:40:39;;;;;;;10.57;9.47;;;;;;;3.86;100.00;95991.78;5006881;28;105398;-64
2022/04/20 06:43:24;;;;;;;11.67;10.00;;;;;;;3.84;100.00;96002.56;5008192;28;102666;-64
2022/04/20 06:46:26;;;;;;;11.43;10.23;;;;;;;4.01;100.00;96000.13;5040727;27;105381;-64
2022/04/20 06:49:15;;;;;;;11.50;10.30;;;;;;;4.00;100.00;96001.97;5008703;28;102337;-64
2022/04/20 07:00:32;;;;;;;11.93;9.97;;;;;;;4.30;100.00;95994.94;5040590;27;104761;-64
2022/04/20 07:03:06;;;;;;;11.23;10.00;;;;;;;4.44;100.00;95985.88;5023297;28;105644;-64
2022/04/20 07:05:53;;;;;;;13.37;9.17;;;;;;;4.06;100.00;95993.22;5040774;27;102322;-64
2022/04/20 07:08:48;;;;;;;10.57;9.40;;;;;;;4.12;100.00;95987.06;5041388;27;105326;-64
2022/04/20 07:11:19;;;;;;;10.43;9.20;;;;;;;4.66;100.00;95996.72;5023863;28;105237;-64
2022/04/20 07:13:51;;;;;;;11.07;9.13;;;;;;;5.02;100.00;95996.63;5024557;28;101844;-64
2022/04/20 07:16:18;;;;;;;10.03;8.93;;;;;;;5.29;100.00;95982.00;5024639;28;104772;-64
2022/04/20 07:18:55;;;;;;;10.90;9.40;;;;;;;4.71;100.00;95986.31;5027122;28;105028;-64
2022/04/20 07:21:45;;;;;;;13.57;8.77;;;;;;;4.70;100.00;95989.97;5007857;28;104812;-64
2022/04/20 07:24:31;;;;;;;10.43;8.47;;;;;;;4.27;100.00;95995.38;5005455;28;101694;-64
2022/04/20 07:27:00;;;;;;;9.30;8.40;;;;;;;4.58;100.00;95989.94;5006713;28;101762;-64
2022/04/20 07:29:41;;;;;;;9.40;8.40;;;;;;;4.78;100.00;95993.09;5028069;28;105327;-65
2022/04/20 07:32:27;;;;;;;9.63;8.70;;;;;;;4.97;100.00;95994.63;5027246;28;105565;-64
2022/04/20 07:35:12;;;;;;;9.13;8.33;;;;;;;5.05;100.00;95998.78;5012950;28;102219;-64
2022/04/20 07:38:13;;;;;;;8.73;7.93;;;;;;;5.11;100.00;95997.88;5010424;28;102278;-64
2022/04/20 07:41:10;;;;;;;8.63;7.77;;;;;;;5.49;100.00;96006.22;5009027;28;102542;-64
2022/04/20 07:44:03;;;;;;;8.70;7.53;;;;;;;5.37;100.00;96003.56;5013853;28;102016;-64
2022/04/20 07:46:48;;;;;;;8.90;8.00;;;;;;;5.78;100.00;96002.69;5011932;28;103094;-65
2022/04/20 07:52:21;;;;;;;9.70;8.70;;;;;;;5.85;100.00;96008.66;5027802;28;105281;-64
2022/04/20 07:55:16;;;;;;;8.90;8.00;;;;;;;5.42;100.00;96005.50;5011006;28;103044;-64
2022/04/20 07:58:13;;;;;;;8.73;7.93;;;;;;;6.02;100.00;96001.66;5010818;28;101878;-64
2022/04/20 08:00:49;;;;;;;9.43;7.77;;;;;;;6.28;100.00;96001.16;5010462;28;104796;-64
2022/04/20 08:03:42;;;;;;;8.40;7.60;;;;;;;6.32;100.00;96000.47;5009373;28;102969;-64
2022/04/20 08:06:10;;;;;;;7.93;7.10;;;;;;;6.46;100.00;96001.00;5027228;28;101867;-64
2022/04/20 08:08:40;;;;;;;8.60;7.80;;;;;;;6.77;100.00;96005.84;5030625;28;104938;-64
2022/04/20 08:11:08;;;;;;;7.90;7.10;;;;;;;7.46;100.00;96001.00;5027338;28;102290;-64
2022/04/20 08:16:39;;;;;;;7.57;6.80;;;;;;;7.71;100.00;96000.59;5026884;28;105176;-64
2022/04/20 08:19:26;;;;;;;7.10;6.40;;;;;;;7.55;100.00;96002.22;5009888;28;101870;-64
2022/04/20 08:22:13;;;;;;;7.10;6.47;;;;;;;7.88;100.00;96006.69;5044004;27;104874;-64
2022/04/20 08:24:43;;;;;;;7.77;7.07;;;;;;;8.21;100.00;96002.16;5042934;27;103069;-64
2022/04/20 08:27:12;;;;;;;6.77;6.17;;;;;;;8.23;100.00;95999.28;5011418;28;102113;-64
2022/04/20 08:29:38;;;;;;;7.70;7.00;;;;;;;8.06;100.00;95995.81;5011729;28;102245;-64
2022/04/20 08:32:06;;;;;;;7.47;6.87;;;;;;;8.26;100.00;95990.81;5029841;28;103775;-64
2022/04/20 08:34:32;;;;;;;7.53;6.87;;;;;;;7.78;100.00;95990.63;5011578;28;102306;-64
2022/04/20 08:37:00;;;;;;;6.53;5.93;;;;;;;7.52;100.00;95991.31;5043049;27;103324;-64
2022/04/20 08:39:27;;;;;;;6.57;5.97;;;;;;;7.72;100.00;95986.31;5025704;27;101864;-64
2022/04/20 08:41:55;;;;;;;7.17;6.50;;;;;;;8.33;100.00;95983.50;5009868;28;104866;-64
2022/04/20 08:44:28;;;;;;;7.13;6.43;;;;;;;8.09;100.00;95990.03;5009615;28;103876;-64
2022/04/20 08:46:59;;;;;;;10.17;9.17;;;;;;;8.29;100.00;95985.84;5026562;28;101883;-64
2022/04/20 08:49:27;;;;;;;7.57;6.87;;;;;;;8.34;100.00;95990.41;5011377;28;102422;-64
2022/04/20 08:54:40;;;;;;;7.07;6.47;;;;;;;9.04;100.00;95981.41;5026755;28;103890;-64
2022/04/20 08:57:16;;;;;;;6.27;5.67;;;;;;;9.04;100.00;95975.28;5042504;27;105287;-64
2022/04/20 08:59:47;;;;;;;6.20;5.70;;;;;;;9.30;100.00;95969.19;5043433;27;101853;-64
2022/04/20 09:02:15;;;;;;;6.10;5.57;;;;;;;8.94;100.00;95969.91;5026018;28;105673;-64
2022/04/20 09:04:43;;;;;;;6.43;5.93;;;;;;;8.65;100.00;95979.13;5043150;27;106167;-64
2022/04/20 09:07:11;;;;;;;6.40;5.90;;;;;;;7.80;100.00;95973.47;5010982;28;101674;-64
2022/04/20 09:09:39;;;;;;;6.00;5.50;;;;;;;8.26;100.00;95967.81;5026159;28;104940;-64
2022/04/20 09:12:12;;;;;;;6.33;5.83;;;;;;;9.15;100.00;95953.13;5010401;28;102699;-64
2022/04/20 09:14:41;;;;;;;8.40;7.63;;;;;;;9.74;100.00;95954.66;5029785;28;102025;-64
2022/04/20 09:17:12;;;;;;;6.80;5.80;;;;;;;9.47;100.00;95953.94;5010348;28;103254;-64
2022/04/20 09:19:40;;;;;;;6.27;5.57;;;;;;;10.04;100.00;95957.56;5009501;28;101756;-64
2022/04/20 09:22:22;;;;;;;5.83;5.30;;;;;;;10.31;100.00;95953.69;5026089;28;105186;-64
2022/04/20 09:25:08;;;;;;;5.80;5.30;;;;;;;9.99;100.00;95953.00;5025359;28;105440;-64
2022/04/20 09:27:36;;;;;;;8.37;5.83;;;;;;;10.50;100.00;95940.75;5009513;28;101866;-64
2022/04/20 09:30:09;;;;;;;6.10;5.50;;;;;;;10.81;100.00;95943.28;5026096;28;105051;-64
2022/04/20 09:32:40;;;;;;;5.50;5.00;;;;;;;11.25;100.00;95938.28;5042278;27;105705;-64
2022/04/20 09:35:12;;;;;;;6.10;5.50;;;;;;;11.24;100.00;95936.69;5025631;28;101901;-64
2022/04/20 09:37:40;;;;;;;5.33;4.93;;;;;;;11.59;100.00;95934.03;5013209;28;102339;-64
2022/04/20 09:40:34;;;;;;;4.90;4.50;;;;;;;11.77;97.09;95926.31;5007768;28;101712;-64
2022/04/20 09:43:03;;;;;;;5.73;5.23;;;;;;;11.81;99.19;95927.38;5025473;28;105476;-64
2022/04/20 09:45:30;;;;;;;5.17;4.67;;;;;;;12.32;98.56;95922.72;5025268;28;105060;-64
2022/04/20 09:50:52;;;;;;;4.90;4.50;;;;;;;12.61;86.86;95924.47;4978155;28;105551;-64
2022/04/20 09:53:19;;;;;;;4.03;3.63;;;;;;;12.71;80.87;95919.06;5025092;28;103859;-64
2022/04/20 09:55:46;;;;;;;3.53;3.20;;;;;;;12.85;68.20;95924.59;5009583;28;101915;-64
2022/04/20 09:58:15;;;;;;;3.77;3.47;;;;;;;13.14;67.13;95920.19;5010332;28;102277;-64
2022/04/20 10:00:43;;;;;;;2.70;2.50;;;;;;;12.26;56.98;95913.16;5011446;28;105823;-64
2022/04/20 10:03:12;;;;;;;3.33;3.03;;;;;;;12.60;71.16;95919.41;5010482;28;102261;-64
2022/04/20 10:05:39;;;;;;;4.80;3.63;;;;;;;12.71;71.16;95912.94;5009221;28;102541;-64
2022/04/20 10:08:07;;;;;;;3.70;3.40;;;;;;;12.85;62.10;95905.91;5009916;28;101807;-64
2022/04/20 10:10:34;;;;;;;3.50;3.20;;;;;;;13.17;62.34;95904.41;5025603;28;105601;-64
2022/04/20 10:13:03;;;;;;;2.77;2.53;;;;;;;13.63;53.67;95897.63;5009477;28;102777;-64
2022/04/20 10:18:30;;;;;;;3.00;2.80;;;;;;;13.78;60.36;95894.81;5025254;28;104869;-64
2022/04/20 10:20:58;;;;;;;2.77;2.57;;;;;;;13.75;51.87;95892.72;5009379;28;102521;-64
2022/04/20 10:23:29;;;;;;;2.67;2.47;;;;;;;14.26;52.72;95893.81;5028977;28;101782;-64
2022/04/20 10:25:58;;;;;;;3.47;3.23;;;;;;;14.13;49.60;95886.47;5009384;28;102528;-64
2022/04/20 10:28:36;;;;;;;2.50;2.30;;;;;;;14.29;52.53;95879.84;5042197;27;101875;-64
2022/04/20 10:31:13;;;;;;;2.80;2.60;;;;;;;14.63;48.73;95877.84;5009914;28;102819;-64
2022/04/20 10:33:43;;;;;;;2.53;2.33;;;;;;;15.11;48.13;95876.63;5007821;28;105705;-64
2022/04/20 10:36:30;;;;;;;3.00;2.80;;;;;;;15.03;47.79;95874.59;5025091;28;102353;-64
2022/04/20 10:39:20;;;;;;;2.43;2.23;;;;;;;14.90;47.21;95869.97;5025265;28;103593;-64
2022/04/20 10:42:20;;;;;;;2.27;2.17;;;;;;;14.84;46.22;95870.31;5024358;28;105725;-64
2022/04/20 10:45:07;;;;;;;2.60;2.40;;;;;;;14.93;44.53;95860.56;5008070;28;101876;-64
2022/04/20 10:47:36;;;;;;;2.10;2.00;;;;;;;15.11;41.29;95862.44;5010780;28;106014;-64
2022/04/20 10:50:27;;;;;;;2.60;2.40;;;;;;;15.16;41.84;95859.69;5009620;28;102258;-64
2022/04/20 10:52:58;;;;;;;2.63;2.30;;;;;;;14.90;44.29;95856.59;5009689;28;102323;-64
2022/04/20 10:55:52;;;;;;;2.27;2.17;;;;;;;15.38;43.76;95860.66;5024123;28;105071;-64
2022/04/20 10:58:20;;;;;;;2.60;2.37;;;;;;;15.57;45.06;95847.22;5009416;28;101908;-64
2022/04/20 11:00:48;;;;;;;2.30;2.20;;;;;;;15.78;43.53;95853.84;5009147;28;102740;-64
2022/04/20 11:03:16;;;;;;;4.57;2.17;;;;;;;15.81;43.23;95847.91;5026684;27;105764;-64
2022/04/20 11:05:54;;;;;;;2.70;2.50;;;;;;;15.59;43.57;95839.72;5012673;28;101824;-64
2022/04/20 11:08:22;;;;;;;2.53;2.43;;;;;;;14.87;43.29;95838.41;5015914;28;102801;-64
2022/04/20 11:19:34;;;;;;;2.50;2.30;;;;;;;16.29;41.78;95824.97;4953621;28;102184;-64
2022/04/20 11:22:21;;;;;;;2.40;2.10;;;;;;;16.35;41.96;95826.44;4954011;28;105245;-64
2022/04/20 11:24:48;;;;;;;2.17;2.07;;;;;;;16.38;40.28;95821.28;4993536;28;102930;-64
2022/04/20 11:27:15;;;;;;;2.20;2.00;;;;;;;16.36;41.01;95814.63;5012303;28;101907;-64
2022/04/20 11:29:44;;;;;;;2.50;2.30;;;;;;;16.82;40.69;95815.25;5028021;28;105622;-64
2022/04/20 11:32:11;;;;;;;2.50;2.30;;;;;;;16.73;39.42;95809.03;5015217;28;102597;-64
2022/04/20 11:34:48;;;;;;;3.00;2.40;;;;;;;16.85;40.18;95803.91;5027853;28;105432;-64
2022/04/20 11:37:15;;;;;;;2.40;2.30;;;;;;;16.86;38.62;95805.50;5011689;28;102839;-64
2022/04/20 11:39:43;;;;;;;2.40;2.20;;;;;;;17.40;39.89;95799.91;5012159;28;101814;-64
2022/04/20 11:42:11;;;;;;;2.60;2.40;;;;;;;17.31;39.70;95807.09;5012321;28;102271;-64
2022/04/20 11:44:41;;;;;;;2.57;2.37;;;;;;;17.24;39.27;95807.53;5011781;28;102978;-64
2022/04/20 11:47:17;;;;;;;2.00;1.90;;;;;;;17.11;38.58;95802.22;5027548;28;101784;-64
2022/04/20 11:49:48;;;;;;;2.20;2.10;;;;;;;17.16;38.47;95799.41;5012342;28;102563;-64
2022/04/20 11:52:21;;;;;;;1.90;1.80;;;;;;;17.29;36.37;95785.09;5026814;28;103959;-64
2022/04/20 11:55:05;;;;;;;2.57;2.37;;;;;;;17.46;38.03;95782.56;5030817;28;101808;-64
2022/04/20 11:57:33;;;;;;;2.40;2.30;;;;;;;17.44;37.87;95780.16;5026210;28;105440;-64
2022/04/20 12:00:00;;;;;;;3.30;2.47;;;;;;;17.50;37.48;95784.31;5011767;28;102092;-64
2022/04/20 12:02:27;;;;;;;3.30;3.00;;;;;;;17.56;38.16;95774.22;5011872;28;102813;-64
2022/04/20 12:05:07;;;;;;;5.13;2.87;;;;;;;17.85;40.07;95774.53;5027055;28;105112;-64
2022/04/20 12:07:34;;;;;;;3.93;2.50;;;;;;;17.82;39.90;95775.16;5027416;28;101884;-64
2022/04/20 12:10:03;;;;;;;3.50;2.43;;;;;;;17.54;38.64;95773.75;5011711;28;102419;-64
2022/04/20 12:12:32;;;;;;;2.90;2.63;;;;;;;17.80;38.47;95771.97;5026679;28;104388;-64
2022/04/20 12:15:06;;;;;;;3.20;3.00;;;;;;;17.59;38.67;95766.34;5042752;27;101991;-64
2022/04/20 12:17:34;;;;;;;2.80;2.60;;;;;;;17.73;39.01;95768.94;5046627;27;105445;-64
2022/04/20 12:20:01;;;;;;;2.80;2.60;;;;;;;17.77;36.83;95756.47;5027217;28;101884;-64
2022/04/20 12:22:28;;;;;;;2.83;2.50;;;;;;;18.14;39.18;95764.03;5044084;27;105338;-64
2022/04/20 12:25:07;;;;;;;3.93;3.20;;;;;;;18.15;39.67;95752.16;5043424;27;105778;-64
2022/04/20 12:27:51;;;;;;;5.30;3.33;;;;;;;18.57;38.95;95763.03;5027142;28;101759;-64
2022/04/20 12:30:35;;;;;;;2.90;2.70;;;;;;;18.44;37.49;95761.28;5026877;28;105120;-64
2022/04/20 12:33:04;;;;;;;2.83;2.63;;;;;;;18.45;37.84;95759.34;5026027;28;104210;-64